Cooley, Minnesota
Current Conditions -  °F | °C
As of 6:35 AM on Monday 24 Nov 2014 (Local Time) from KGPZ Reporting Station
Overcast Overcast  
Wind Chill:   Ceiling: 600
Heat Index: 23°   Visibility: 10mi
Dew Point: 19°   Wind: 17mph
Humidity: 86%   Direction: 310°NW
Pressure: 29.33"   Gusts: 21mph
Location:  47.5025°N, 93.3734°W
Report Text: KGPZ 241235Z AUTO 31015G18KT 10SM OVC006 M05/M07 A2933 RMK AO1
Loading
Personal Weather Stations






























Interactive Weather Map New forecast layout! Learn more

10-Day Weather Forecast

Advertisements
Track Severe Weather on mobile